• Join FlightAware (Why Join?)
  • Login
  • US Flag 
04:29AM EDT


 

Airport Tracker/Info


-or-


 

Live Flight TrackerFlight Track Log ✈ EJA727 ✈ 07-May-2013 ✈ KPWK - KMSP

Flight Track Log - Related Links

Times and Time Zones

All times are in EDT time to prevent confusion due to time zone crossing. See the EJA727 flight status page for this flight to view local times or setup timezone preferences in your user account.

Time Position Orientation Groundspeed Altitude Reporting Facility
EDT Latitude Longitude Course Direction KTS MPH feet Rate Location/Type
11:24AM 42.1333 -87.9167 299° West 189 217 2,100  Level Chicago TRACON
11:24AM 42.1450 -87.9447 299° West 244 281 2,700 1,380 Climbing Chicago Center
11:25AM 42.1636 -88.0269 287° West 235 270 4,000 2,040 Climbing Chicago Center
11:26AM 42.1728 -88.1278 277° West 278 320 7,000 3,720 Climbing Chicago Center
11:27AM 42.1433 -88.2289 249° West 292 336 11,700 3,120 Climbing Chicago Center
11:28AM 42.1417 -88.3833 269° West 341 392 13,500 2,880 Climbing Chicago Center
11:29AM 42.1383 -88.5250 268° West 370 426 17,700 3,960 Climbing Chicago Center
11:30AM 42.1344 -88.6683 268° West 384 442 21,800 3,720 Climbing Chicago Center
11:31AM 42.1317 -88.8117 269° West 387 445 25,400 3,300 Climbing Chicago Center
11:32AM 42.1317 -88.9681 270° West 395 455 28,600 2,580 Climbing Chicago Center
11:34AM 42.1347 -89.1208 272° West 403 464 30,800 1,740 Climbing Chicago Center
11:35AM 42.1358 -89.2847 271° West 434 499 32,300 1,500 Climbing Chicago Center
11:36AM 42.1639 -89.4828 281° West 463 533 33,900 780 Climbing Chicago Center
11:37AM 42.1919 -89.6625 282° West 483 556 34,000  Climbing Chicago Center
11:38AM 42.2189 -89.8444 281° West 491 565 34,000  Level Chicago Center
11:39AM 42.2403 -89.9981 281° West 482 555 34,000  Level Chicago Center
11:40AM 42.2689 -90.1939 281° West 451 519 34,000  Level Chicago Center
11:41AM 42.2903 -90.3514 280° West 435 501 34,000  Level Chicago Center
11:42AM 42.3119 -90.5100 281° West 433 498 34,000  Level Chicago Center
11:43AM 42.3350 -90.6708 281° West 438 504 34,000  Level Chicago Center
11:44AM 42.3578 -90.8372 281° West 450 518 34,000  Level Chicago Center
11:45AM 42.3850 -91.0458 280° West 472 543 34,000  Level Chicago Center
11:46AM 42.4081 -91.2208 280° West 474 545 34,000  Level Chicago Center
11:47AM 42.4314 -91.3975 280° West 476 548 34,000  Level Chicago Center
11:48AM 42.4533 -91.5758 280° West 480 552 34,000  Level Chicago Center
11:49AM 42.4778 -91.7556 281° West 482 555 34,000  Level Chicago Center
11:50AM 42.5000 -91.9356 280° West 483 556 34,000  Level Chicago Center
11:51AM 42.5214 -92.1128 279° West 477 549 34,000  Level Chicago Center
11:52AM 42.5592 -92.3189 284° West 467 537 34,000  Level Chicago Center
11:53AM 42.6336 -92.4611 305° West 461 531 34,000  Level Chicago Center
11:54AM 42.7436 -92.5628 326° Northwest 476 548 34,000  Level Chicago Center
11:55AM 42.8694 -92.6308 338° Northwest 482 555 34,000 -780 Level Chicago Center
11:56AM 42.9919 -92.6981 338° Northwest 479 551 32,400 -1,860 Descending Chicago Center
11:57AM 43.1119 -92.7653 338° Northwest 469 540 30,200 -2,340 Descending Chicago Center
11:58AM 43.2536 -92.8450 338° Northwest 462 532 27,600 -2,400 Descending Chicago Center
11:59AM 43.3794 -92.8964 343° North 473 544 25,400 -2,220 Descending Chicago Center
12:00PM 43.5053 -92.9439 345° North 473 544 23,100 -2,040 Descending Chicago Center
12:01PM 43.6361 -92.9997 343° North 465 535 21,200 -2,160 Descending Chicago Center
12:03PM 43.7742 -93.0422 347° North 456 525 18,300 -2,280 Descending Minneapolis Center
12:04PM 43.8992 -93.0925 344° North 400 460 16,000 -2,100 Descending Minneapolis Center
12:05PM 44.0011 -93.1314 345° North 384 442 14,000 -1,740 Descending Minneapolis Center
12:06PM 44.0856 -93.1631 345° North 370 426 12,500 -1,860 Descending Minneapolis Center
12:07PM 44.2008 -93.2078 344° North 353 406 10,200 -1,260 Descending Minneapolis Center
12:08PM 44.2936 -93.2144 357° North 332 382 10,000 -480 Descending Minneapolis Center
12:09PM 44.3867 -93.2047 North 313 360 9,300 -1,260 Descending Minneapolis Center
12:10PM 44.4644 -93.1803 13° North 290 334 7,500 -1,140 Descending Minneapolis Center
12:11PM 44.5369 -93.1633 North 249 287 7,000 -960 Descending Minneapolis Center
12:12PM 44.6081 -93.1703 356° North 256 295 5,600 -1,440 Descending Minneapolis Center
12:13PM 44.6664 -93.1847 350° North 198 228 4,100 -900 Descending Minneapolis Center
12:14PM 44.7197 -93.1989 349° North 195 224 3,800 -660 Descending Minneapolis Center
12:15PM 44.7764 -93.2133 350° North 204 235 2,800 -1,080 Descending Minneapolis Center
12:16PM 44.8306 -93.2281 349° North 188 216 1,600 -1,200 Descending Minneapolis Center
12:18PM 44.8667 -93.2167 North  Level FlightAware Approximate
12:25PM 44.8820 -93.2218 North  Level Estimated
12:26PM 44.8820 -93.2218 North  Level Estimated